createdAt,value
2022-11-27T00:01:54.573Z,100.00
2022-11-27T00:04:21.249Z,100.00
2022-11-27T00:06:47.746Z,100.00
2022-11-27T00:09:16.343Z,100.00
2022-11-27T00:11:44.124Z,100.00
2022-11-27T00:14:15.389Z,100.00
2022-11-27T00:16:42.223Z,100.00
2022-11-27T00:19:10.449Z,100.00
2022-11-27T00:21:37.534Z,100.00
2022-11-27T00:24:05.179Z,100.00
2022-11-27T00:26:37.469Z,100.00
2022-11-27T00:29:05.665Z,100.00
2022-11-27T00:31:34.078Z,100.00
2022-11-27T00:34:02.443Z,100.00
2022-11-27T00:36:30.818Z,100.00
2022-11-27T00:38:57.534Z,100.00
2022-11-27T00:41:26.263Z,100.00
2022-11-27T00:43:54.017Z,100.00
2022-11-27T00:46:28.324Z,100.00
2022-11-27T00:48:56.343Z,100.00
2022-11-27T00:51:24.294Z,100.00
2022-11-27T00:53:51.564Z,100.00
2022-11-27T00:56:30.397Z,100.00
2022-11-27T00:58:57.939Z,100.00
2022-11-27T01:01:33.921Z,100.00
2022-11-27T01:04:02.278Z,100.00
2022-11-27T01:06:30.047Z,100.00
2022-11-27T01:08:58.215Z,100.00
2022-11-27T01:11:28.133Z,100.00
2022-11-27T01:13:59.956Z,100.00
2022-11-27T01:16:28.724Z,100.00
2022-11-27T01:18:57.814Z,100.00
2022-11-27T01:21:26.093Z,100.00
2022-11-27T01:23:53.941Z,100.00
2022-11-27T01:26:21.074Z,100.00
2022-11-27T01:28:47.841Z,100.00
2022-11-27T01:31:21.072Z,100.00
2022-11-27T01:33:51.898Z,100.00
2022-11-27T01:36:18.398Z,100.00
2022-11-27T01:38:44.996Z,100.00
2022-11-27T01:41:23.388Z,100.00
2022-11-27T01:43:51.889Z,100.00
2022-11-27T01:46:44.668Z,100.00
2022-11-27T01:49:11.216Z,100.00
2022-11-27T01:51:46.284Z,100.00
2022-11-27T01:54:14.808Z,100.00
2022-11-27T01:56:43.625Z,100.00
2022-11-27T01:59:10.183Z,100.00
2022-11-27T02:01:36.917Z,100.00
2022-11-27T02:04:04.023Z,100.00
2022-11-27T02:06:30.514Z,100.00
2022-11-27T02:08:57.085Z,100.00
2022-11-27T02:11:52.847Z,100.00
2022-11-27T02:14:39.969Z,100.00
2022-11-27T02:17:32.735Z,100.00
2022-11-27T02:20:24.170Z,100.00
2022-11-27T02:22:53.547Z,100.00
2022-11-27T02:25:44.471Z,100.00
2022-11-27T02:28:32.329Z,100.00
2022-11-27T02:31:36.853Z,100.00
2022-11-27T02:34:35.777Z,100.00
2022-11-27T02:37:10.649Z,100.00
2022-11-27T02:39:48.715Z,100.00
2022-11-27T02:42:19.834Z,100.00
2022-11-27T02:44:52.824Z,100.00
2022-11-27T02:47:20.043Z,100.00
2022-11-27T02:49:49.663Z,100.00
2022-11-27T02:52:19.259Z,100.00
2022-11-27T02:54:51.204Z,100.00
2022-11-27T02:57:20.298Z,100.00
2022-11-27T02:59:47.947Z,100.00
2022-11-27T03:02:20.973Z,100.00
2022-11-27T03:04:54.086Z,100.00
2022-11-27T03:07:39.936Z,100.00
2022-11-27T03:10:13.232Z,100.00
2022-11-27T03:12:39.976Z,100.00
2022-11-27T03:15:07.374Z,100.00
2022-11-27T03:17:43.152Z,100.00
2022-11-27T03:20:19.266Z,100.00
2022-11-27T03:22:46.154Z,100.00
2022-11-27T03:25:12.950Z,100.00
2022-11-27T03:27:46.143Z,100.00
2022-11-27T03:30:13.801Z,100.00
2022-11-27T03:32:40.337Z,100.00
2022-11-27T03:35:11.404Z,100.00
2022-11-27T03:37:38.157Z,100.00
2022-11-27T03:40:06.081Z,100.00
2022-11-27T03:42:58.459Z,100.00
2022-11-27T03:45:37.988Z,100.00
2022-11-27T03:48:24.173Z,100.00
2022-11-27T03:51:11.265Z,100.00
2022-11-27T03:54:10.986Z,100.00
2022-11-27T03:56:46.078Z,100.00
2022-11-27T03:59:22.968Z,100.00
2022-11-27T04:01:49.696Z,100.00
2022-11-27T04:04:16.429Z,100.00
2022-11-27T04:06:43.026Z,100.00
2022-11-27T04:09:09.627Z,100.00
2022-11-27T04:11:36.431Z,100.00
2022-11-27T04:14:03.090Z,100.00
2022-11-27T04:16:29.701Z,100.00
2022-11-27T04:18:56.481Z,100.00
2022-11-27T04:21:23.186Z,100.00
2022-11-27T04:23:49.714Z,100.00
2022-11-27T04:26:16.412Z,100.00
2022-11-27T04:28:43.131Z,100.00
2022-11-27T04:31:09.731Z,100.00
2022-11-27T04:33:36.353Z,100.00
2022-11-27T04:36:02.945Z,100.00
2022-11-27T04:38:29.517Z,100.00
2022-11-27T04:40:56.108Z,100.00
2022-11-27T04:43:22.669Z,100.00
2022-11-27T04:45:49.291Z,100.00
2022-11-27T04:48:15.855Z,100.00
2022-11-27T04:50:42.555Z,100.00
2022-11-27T04:53:09.105Z,100.00
2022-11-27T04:55:36.094Z,100.00
2022-11-27T04:58:02.532Z,100.00
2022-11-27T05:00:29.318Z,100.00
2022-11-27T05:02:56.079Z,100.00
2022-11-27T05:05:22.674Z,100.00
2022-11-27T05:07:49.869Z,100.00
2022-11-27T05:10:16.480Z,100.00
2022-11-27T05:12:42.975Z,100.00
2022-11-27T05:15:09.827Z,100.00
2022-11-27T05:17:36.345Z,100.00
2022-11-27T05:20:03.726Z,100.00
2022-11-27T05:22:30.258Z,100.00
2022-11-27T05:24:56.867Z,100.00
2022-11-27T05:27:23.416Z,100.00
2022-11-27T05:29:49.987Z,100.00
2022-11-27T05:32:16.519Z,100.00
2022-11-27T05:34:43.164Z,100.00
2022-11-27T05:37:11.267Z,100.00
2022-11-27T05:39:40.478Z,100.00
2022-11-27T05:42:07.025Z,100.00
2022-11-27T05:44:33.591Z,100.00
2022-11-27T05:47:00.189Z,100.00
2022-11-27T05:49:28.986Z,100.00
2022-11-27T05:51:55.549Z,100.00
2022-11-27T05:54:22.089Z,100.00
2022-11-27T05:56:48.572Z,100.00
2022-11-27T05:59:15.498Z,100.00
2022-11-27T06:01:42.670Z,100.00
2022-11-27T06:04:09.195Z,100.00
2022-11-27T06:06:35.698Z,100.00
2022-11-27T06:09:02.339Z,100.00
2022-11-27T06:11:28.968Z,100.00
2022-11-27T06:13:55.506Z,100.00
2022-11-27T06:16:24.561Z,100.00
2022-11-27T06:18:55.453Z,100.00
2022-11-27T06:21:24.108Z,100.00
2022-11-27T06:23:56.817Z,100.00
2022-11-27T06:26:28.668Z,100.00
2022-11-27T06:28:56.517Z,100.00
2022-11-27T06:31:26.054Z,100.00
2022-11-27T06:33:54.011Z,100.00
2022-11-27T06:36:22.314Z,100.00
2022-11-27T06:38:48.897Z,100.00
2022-11-27T06:41:21.035Z,100.00
2022-11-27T06:43:48.029Z,100.00
2022-11-27T06:46:16.109Z,100.00
2022-11-27T06:48:44.723Z,100.00
2022-11-27T06:51:14.300Z,100.00
2022-11-27T06:53:41.577Z,100.00
2022-11-27T06:56:10.294Z,100.00
2022-11-27T06:58:37.557Z,100.00
2022-11-27T07:01:07.197Z,100.00
2022-11-27T07:03:34.244Z,100.00
2022-11-27T07:06:02.261Z,100.00
2022-11-27T07:08:29.756Z,100.00
2022-11-27T07:11:06.996Z,100.00
2022-11-27T07:13:33.923Z,100.00
2022-11-27T07:16:01.967Z,100.00
2022-11-27T07:18:30.088Z,100.00
2022-11-27T07:20:57.184Z,100.00
2022-11-27T07:23:23.854Z,100.00
2022-11-27T07:25:50.385Z,100.00
2022-11-27T07:28:19.004Z,100.00
2022-11-27T07:30:45.886Z,100.00
2022-11-27T07:33:12.407Z,100.00
2022-11-27T07:35:38.900Z,100.00
2022-11-27T07:38:05.362Z,100.00
2022-11-27T07:40:31.845Z,100.00
2022-11-27T07:42:58.821Z,100.00
2022-11-27T07:45:25.275Z,100.00
2022-11-27T07:47:51.770Z,100.00
2022-11-27T07:50:18.298Z,100.00
2022-11-27T07:52:44.758Z,100.00
2022-11-27T07:55:11.261Z,100.00
2022-11-27T07:57:37.857Z,100.00
2022-11-27T08:00:05.449Z,100.00
2022-11-27T08:02:32.057Z,100.00
2022-11-27T08:04:58.550Z,100.00
2022-11-27T08:07:28.947Z,100.00
2022-11-27T08:09:57.714Z,100.00
2022-11-27T08:12:25.532Z,100.00
2022-11-27T08:14:52.420Z,100.00
2022-11-27T08:17:39.114Z,100.00
2022-11-27T08:20:07.733Z,100.00
2022-11-27T08:22:35.626Z,100.00
2022-11-27T08:25:02.157Z,100.00
2022-11-27T08:27:30.813Z,100.00
2022-11-27T08:29:57.415Z,100.00
2022-11-27T08:32:23.966Z,100.00
2022-11-27T08:34:50.551Z,100.00
2022-11-27T08:37:17.055Z,100.00
2022-11-27T08:39:43.622Z,100.00
2022-11-27T08:42:10.201Z,100.00
2022-11-27T08:44:52.113Z,100.00
2022-11-27T08:47:19.753Z,100.00
2022-11-27T08:49:46.545Z,100.00
2022-11-27T08:52:13.448Z,100.00
2022-11-27T08:54:40.225Z,100.00
2022-11-27T08:57:06.849Z,100.00
2022-11-27T08:59:33.367Z,100.00
2022-11-27T09:01:59.992Z,100.00
2022-11-27T09:04:26.473Z,100.00
2022-11-27T09:06:58.111Z,100.00
2022-11-27T09:09:25.350Z,100.00
2022-11-27T09:11:54.434Z,100.00
2022-11-27T09:14:20.952Z,100.00
2022-11-27T09:16:47.570Z,100.00
2022-11-27T09:19:14.117Z,100.00
2022-11-27T09:21:40.567Z,100.00
2022-11-27T09:24:07.326Z,100.00
2022-11-27T09:26:33.814Z,100.00
2022-11-27T09:29:01.407Z,100.00
2022-11-27T09:31:28.034Z,100.00
2022-11-27T09:33:54.561Z,100.00
2022-11-27T09:36:23.624Z,100.00
2022-11-27T09:38:50.699Z,100.00
2022-11-27T09:41:19.875Z,100.00
2022-11-27T09:43:53.731Z,100.00
2022-11-27T09:46:31.428Z,100.00
2022-11-27T09:49:00.770Z,100.00
2022-11-27T09:51:34.116Z,100.00
2022-11-27T09:54:08.659Z,100.00
2022-11-27T09:56:36.662Z,100.00
2022-11-27T09:59:11.909Z,100.00
2022-11-27T10:01:50.696Z,100.00
2022-11-27T10:04:20.378Z,100.00
2022-11-27T10:06:58.179Z,100.00
2022-11-27T10:09:45.696Z,100.00
2022-11-27T10:12:24.429Z,100.00
2022-11-27T10:15:09.755Z,100.00
2022-11-27T10:17:52.327Z,100.00
2022-11-27T10:20:32.218Z,100.00
2022-11-27T10:23:33.838Z,100.00
2022-11-27T10:26:06.438Z,100.00
2022-11-27T10:29:11.063Z,100.00
2022-11-27T10:31:46.222Z,100.00
2022-11-27T10:34:38.941Z,100.00
2022-11-27T10:37:30.950Z,100.00
2022-11-27T10:40:03.535Z,100.00
2022-11-27T10:42:51.039Z,100.00
2022-11-27T10:45:17.468Z,100.00
2022-11-27T10:47:46.505Z,100.00
2022-11-27T10:50:17.993Z,100.00
2022-11-27T10:52:55.583Z,100.00
2022-11-27T10:55:35.842Z,100.00
2022-11-27T10:58:25.910Z,100.00
2022-11-27T11:01:09.817Z,100.00
2022-11-27T11:03:36.889Z,100.00
2022-11-27T11:06:24.672Z,100.00
2022-11-27T11:09:04.579Z,100.00
2022-11-27T11:11:31.107Z,100.00
2022-11-27T11:13:57.711Z,100.00
2022-11-27T11:16:34.954Z,100.00
2022-11-27T11:19:02.669Z,100.00
2022-11-27T11:21:33.212Z,100.00
2022-11-27T11:24:05.176Z,100.00
2022-11-27T11:26:35.925Z,100.00
2022-11-27T11:29:06.364Z,100.00
2022-11-27T11:31:40.718Z,100.00
2022-11-27T11:34:30.120Z,99.11
2022-11-27T11:36:58.756Z,97.48
2022-11-27T11:39:31.770Z,96.74
2022-11-27T11:41:58.838Z,95.83
2022-11-27T11:44:31.032Z,96.21
2022-11-27T11:46:57.515Z,96.57
2022-11-27T11:49:29.408Z,96.76
2022-11-27T11:52:06.551Z,93.29
2022-11-27T11:54:58.082Z,94.73
2022-11-27T11:58:02.492Z,94.54
2022-11-27T12:01:04.785Z,94.40
2022-11-27T12:03:53.881Z,94.00
2022-11-27T12:06:45.307Z,94.86
2022-11-27T12:09:25.040Z,95.42
2022-11-27T12:12:12.246Z,96.92
2022-11-27T12:14:43.594Z,97.00
2022-11-27T12:17:12.865Z,96.63
2022-11-27T12:20:15.214Z,96.67
2022-11-27T12:23:23.485Z,95.08
2022-11-27T12:26:11.459Z,94.31
2022-11-27T12:28:59.317Z,93.11
2022-11-27T12:31:32.275Z,91.39
2022-11-27T12:34:02.726Z,89.93
2022-11-27T12:36:55.427Z,90.98
2022-11-27T12:39:44.964Z,90.73
2022-11-27T12:42:24.938Z,91.24
2022-11-27T12:44:57.225Z,91.91
2022-11-27T12:47:40.112Z,91.68
2022-11-27T12:50:54.080Z,90.94
2022-11-27T12:53:29.906Z,90.17
2022-11-27T12:56:03.026Z,91.05
2022-11-27T12:58:35.593Z,92.56
2022-11-27T13:01:15.850Z,91.17
2022-11-27T13:03:58.552Z,92.15
2022-11-27T13:06:27.953Z,92.66
2022-11-27T13:09:02.378Z,92.74
2022-11-27T13:11:33.460Z,92.18
2022-11-27T13:14:11.019Z,92.41
2022-11-27T13:16:45.146Z,91.15
2022-11-27T13:19:29.938Z,90.52
2022-11-27T13:21:57.759Z,90.82
2022-11-27T13:24:27.168Z,89.66
2022-11-27T13:27:12.272Z,91.59
2022-11-27T13:29:50.783Z,92.30
2022-11-27T13:32:24.619Z,91.67
2022-11-27T13:34:53.281Z,92.17
2022-11-27T13:37:30.548Z,92.36
2022-11-27T13:40:06.519Z,93.22
2022-11-27T13:42:35.804Z,93.61
2022-11-27T13:45:06.466Z,92.19
2022-11-27T13:47:43.746Z,92.57
2022-11-27T13:50:16.148Z,93.04
2022-11-27T13:53:00.046Z,93.99
2022-11-27T13:55:35.396Z,93.50
2022-11-27T13:58:03.352Z,93.44
2022-11-27T14:00:40.787Z,94.19
2022-11-27T14:03:20.275Z,94.88
2022-11-27T14:05:46.970Z,95.52
2022-11-27T14:08:17.546Z,95.82
2022-11-27T14:11:09.490Z,96.14
2022-11-27T14:13:46.575Z,96.18
2022-11-27T14:16:28.210Z,96.19
2022-11-27T14:18:58.212Z,96.54
2022-11-27T14:21:39.299Z,95.81
2022-11-27T14:24:46.030Z,95.46
2022-11-27T14:27:20.050Z,95.75
2022-11-27T14:29:47.184Z,95.67
2022-11-27T14:32:16.162Z,96.16
2022-11-27T14:34:43.879Z,96.35
2022-11-27T14:37:22.493Z,96.08
2022-11-27T14:39:49.087Z,95.67
2022-11-27T14:42:30.677Z,96.42
2022-11-27T14:45:06.270Z,96.89
2022-11-27T14:47:33.935Z,96.98
2022-11-27T14:50:01.096Z,96.89
2022-11-27T14:52:28.162Z,96.70
2022-11-27T14:54:55.305Z,97.50
2022-11-27T14:57:27.779Z,97.79
2022-11-27T15:00:20.950Z,98.01
2022-11-27T15:02:51.529Z,98.81
2022-11-27T15:05:21.217Z,99.05
2022-11-27T15:07:50.980Z,98.98
2022-11-27T15:10:32.944Z,99.21
2022-11-27T15:13:00.981Z,99.51
2022-11-27T15:15:29.657Z,99.99
2022-11-27T15:18:03.879Z,100.00
2022-11-27T15:20:46.276Z,100.00
2022-11-27T15:23:25.966Z,100.00
2022-11-27T15:26:12.576Z,100.00
2022-11-27T15:28:43.644Z,100.00
2022-11-27T15:31:33.736Z,100.00
2022-11-27T15:34:26.335Z,100.00
2022-11-27T15:37:14.213Z,100.00
2022-11-27T15:40:01.843Z,100.00
2022-11-27T15:42:28.188Z,100.00
2022-11-27T15:45:12.342Z,100.00
2022-11-27T15:47:55.956Z,100.00
2022-11-27T15:50:23.593Z,100.00
2022-11-27T15:52:50.797Z,100.00
2022-11-27T15:55:17.383Z,100.00
2022-11-27T15:57:43.883Z,100.00
2022-11-27T16:00:11.212Z,100.00
2022-11-27T16:02:38.035Z,100.00
2022-11-27T16:05:06.282Z,100.00
2022-11-27T16:07:32.873Z,100.00
2022-11-27T16:09:59.396Z,100.00
2022-11-27T16:12:25.888Z,100.00
2022-11-27T16:14:52.469Z,100.00
2022-11-27T16:17:18.957Z,100.00
2022-11-27T16:19:45.874Z,100.00
2022-11-27T16:22:12.430Z,100.00
2022-11-27T16:24:40.054Z,100.00
2022-11-27T16:27:07.344Z,100.00
2022-11-27T16:29:33.858Z,100.00
2022-11-27T16:32:01.267Z,100.00
2022-11-27T16:34:27.928Z,100.00
2022-11-27T16:36:54.372Z,100.00
2022-11-27T16:39:20.895Z,100.00
2022-11-27T16:41:47.456Z,100.00
2022-11-27T16:44:14.961Z,100.00
2022-11-27T16:46:43.829Z,100.00
2022-11-27T16:49:11.207Z,100.00
2022-11-27T16:51:39.435Z,100.00
2022-11-27T16:54:10.159Z,100.00
2022-11-27T17:04:45.364Z,100.00
2022-11-27T17:07:12.000Z,100.00
2022-11-27T17:09:38.939Z,100.00
2022-11-27T17:12:05.439Z,100.00
2022-11-27T17:14:31.931Z,100.00
2022-11-27T17:16:58.502Z,100.00
2022-11-27T17:19:27.020Z,100.00
2022-11-27T17:21:53.524Z,100.00
2022-11-27T17:24:20.120Z,100.00
2022-11-27T17:26:48.130Z,100.00
2022-11-27T17:29:17.310Z,100.00
2022-11-27T17:31:44.304Z,100.00
2022-11-27T17:34:11.634Z,100.00
2022-11-27T17:36:38.810Z,100.00
2022-11-27T17:39:06.458Z,100.00
2022-11-27T17:41:33.593Z,100.00
2022-11-27T17:44:00.499Z,100.00
2022-11-27T17:46:28.824Z,100.00
2022-11-27T17:48:59.087Z,100.00
2022-11-27T17:51:26.590Z,100.00
2022-11-27T17:53:53.221Z,100.00
2022-11-27T17:56:21.066Z,100.00
2022-11-27T17:58:48.029Z,100.00
2022-11-27T18:01:22.737Z,100.00
2022-11-27T18:03:49.906Z,100.00
2022-11-27T18:06:18.448Z,100.00
2022-11-27T18:08:46.452Z,100.00
2022-11-27T18:11:21.836Z,100.00
2022-11-27T18:13:49.582Z,100.00
2022-11-27T18:16:20.187Z,100.00
2022-11-27T18:18:47.416Z,100.00
2022-11-27T18:21:18.503Z,100.00
2022-11-27T18:24:14.928Z,100.00
2022-11-27T18:27:00.543Z,100.00
2022-11-27T18:29:21.826Z,100.00
2022-11-27T18:31:49.965Z,100.00
2022-11-27T18:34:16.634Z,100.00
2022-11-27T18:36:43.200Z,100.00
2022-11-27T18:39:09.758Z,100.00
2022-11-27T18:41:37.256Z,100.00
2022-11-27T18:44:04.532Z,100.00
2022-11-27T18:46:31.411Z,100.00
2022-11-27T18:48:58.877Z,100.00
2022-11-27T18:51:26.576Z,100.00
2022-11-27T18:53:54.432Z,100.00
2022-11-27T18:56:23.544Z,100.00
2022-11-27T18:58:50.574Z,100.00
2022-11-27T19:01:21.565Z,100.00
2022-11-27T19:03:48.837Z,100.00
2022-11-27T19:06:16.924Z,100.00
2022-11-27T19:08:44.472Z,100.00
2022-11-27T19:11:13.742Z,100.00
2022-11-27T19:13:41.718Z,100.00
2022-11-27T19:16:12.522Z,100.00
2022-11-27T19:18:39.376Z,100.00
2022-11-27T19:21:15.184Z,100.00
2022-11-27T19:23:42.608Z,100.00
2022-11-27T19:26:11.750Z,100.00
2022-11-27T19:28:39.216Z,100.00
2022-11-27T19:31:07.528Z,100.00
2022-11-27T19:33:36.578Z,100.00
2022-11-27T19:36:09.533Z,100.00
2022-11-27T19:38:37.083Z,100.00
2022-11-27T19:41:04.448Z,100.00
2022-11-27T19:43:31.035Z,100.00
2022-11-27T19:45:57.700Z,100.00
2022-11-27T19:48:24.295Z,100.00
2022-11-27T19:50:51.752Z,100.00
2022-11-27T19:53:18.568Z,100.00
2022-11-27T19:55:52.909Z,100.00
2022-11-27T19:58:19.483Z,100.00
2022-11-27T20:00:46.150Z,100.00
2022-11-27T20:03:12.692Z,100.00
2022-11-27T20:05:39.226Z,100.00
2022-11-27T20:08:05.756Z,100.00
2022-11-27T20:10:32.354Z,100.00
2022-11-27T20:13:02.513Z,100.00
2022-11-27T20:15:29.792Z,100.00
2022-11-27T20:17:56.283Z,100.00
2022-11-27T20:20:23.015Z,100.00
2022-11-27T20:22:50.308Z,100.00
2022-11-27T20:25:19.976Z,100.00
2022-11-27T20:27:47.115Z,100.00
2022-11-27T20:30:13.975Z,100.00
2022-11-27T20:32:40.460Z,100.00
2022-11-27T20:35:07.289Z,100.00
2022-11-27T20:37:34.067Z,100.00
2022-11-27T20:40:00.679Z,100.00
2022-11-27T20:42:27.203Z,100.00
2022-11-27T20:44:53.748Z,100.00
2022-11-27T20:47:20.278Z,100.00
2022-11-27T20:49:46.875Z,100.00
2022-11-27T20:52:14.587Z,100.00
2022-11-27T20:54:41.378Z,100.00
2022-11-27T20:57:13.941Z,100.00
2022-11-27T20:59:42.081Z,100.00
2022-11-27T21:02:12.555Z,100.00
2022-11-27T21:04:39.268Z,100.00
2022-11-27T21:07:05.854Z,100.00
2022-11-27T21:09:32.529Z,100.00
2022-11-27T21:11:59.119Z,100.00
2022-11-27T21:14:25.663Z,100.00
2022-11-27T21:16:52.370Z,100.00
2022-11-27T21:19:22.090Z,100.00
2022-11-27T21:21:49.295Z,100.00
2022-11-27T21:24:16.277Z,100.00
2022-11-27T21:26:42.908Z,100.00
2022-11-27T21:29:12.264Z,100.00
2022-11-27T21:31:45.122Z,100.00
2022-11-27T21:34:13.415Z,100.00
2022-11-27T21:36:40.023Z,100.00
2022-11-27T21:39:08.588Z,100.00
2022-11-27T21:41:35.439Z,100.00
2022-11-27T21:44:02.853Z,100.00
2022-11-27T21:46:30.258Z,100.00
2022-11-27T21:48:59.488Z,100.00
2022-11-27T21:51:27.572Z,100.00
2022-11-27T21:53:56.016Z,100.00
2022-11-27T21:56:24.607Z,100.00
2022-11-27T21:58:51.668Z,100.00
2022-11-27T22:01:19.800Z,100.00
2022-11-27T22:03:54.665Z,100.00
2022-11-27T22:06:22.989Z,100.00
2022-11-27T22:08:50.695Z,100.00
2022-11-27T22:11:21.029Z,100.00
2022-11-27T22:13:47.676Z,100.00
2022-11-27T22:16:18.219Z,100.00
2022-11-27T22:18:45.201Z,100.00
2022-11-27T22:21:13.260Z,100.00
2022-11-27T22:23:40.570Z,100.00
2022-11-27T22:26:10.263Z,100.00
2022-11-27T22:28:37.098Z,100.00
2022-11-27T22:31:09.681Z,100.00
2022-11-27T22:33:37.105Z,100.00
2022-11-27T22:36:15.746Z,100.00
2022-11-27T22:38:43.198Z,100.00
2022-11-27T22:41:11.160Z,100.00
2022-11-27T22:43:38.375Z,100.00
2022-11-27T22:46:20.054Z,100.00
2022-11-27T22:48:47.325Z,100.00
2022-11-27T22:51:13.944Z,100.00
2022-11-27T22:53:40.663Z,100.00
2022-11-27T22:56:12.740Z,100.00
2022-11-27T22:58:41.922Z,100.00
2022-11-27T23:01:17.294Z,100.00
2022-11-27T23:03:43.987Z,100.00
2022-11-27T23:06:12.928Z,100.00
2022-11-27T23:08:41.229Z,100.00
2022-11-27T23:11:09.127Z,100.00
2022-11-27T23:13:36.353Z,100.00
2022-11-27T23:16:04.943Z,100.00
2022-11-27T23:18:32.036Z,100.00
2022-11-27T23:20:58.526Z,100.00
2022-11-27T23:23:25.023Z,100.00
2022-11-27T23:25:51.621Z,100.00
2022-11-27T23:28:18.145Z,100.00
2022-11-27T23:30:44.739Z,100.00
2022-11-27T23:33:11.297Z,100.00
2022-11-27T23:35:37.857Z,100.00
2022-11-27T23:38:04.476Z,100.00
2022-11-27T23:40:31.050Z,100.00
2022-11-27T23:42:57.582Z,100.00
2022-11-27T23:45:24.093Z,100.00
2022-11-27T23:47:50.652Z,100.00
2022-11-27T23:50:17.795Z,100.00
2022-11-27T23:52:44.328Z,100.00
2022-11-27T23:55:10.873Z,100.00
2022-11-27T23:57:37.484Z,100.00
